Yard, TX

8:03 AM CDT on June 30, 2015 (GMT -0500)
Hadley | | Change Station
CLOSE
Current Station
Personal Weather Station
Location: Tennessee Colony, TX
Elevation: 370 ft
Nearby Weather Stations
Active Advisory: Flood Warning

Elev 370 ft 31.83 °N, 95.85 °W | Updated 4 minutes ago

Rain
Rain
73.5 °F
Feels Like 73 °F
N
6.0
Wind Variable Wind from WNW

Today
High -- | Low -- °F
--% Chance of Precip.
Yesterday
High -- | Low -- °F
Precip. -- in
6:21 AM 8:33 PM
Waxing Gibbous, 97% visible
Pressure 30.08 in
Visibility 7.0 miles
Clouds Scattered Clouds 1400 ft
Scattered Clouds 2300 ft
Mostly Cloudy 3700 ft
Heat Index 73 °F
Dew Point 68 °F
Humidity 84%
Rainfall 0.00 in
Snow Depth Not available.
UV 0.0 out of 12
Pollen 3.80 out of 12
Air Quality Not available.
Flu Activity Local Activity
METAR KPSN 301255Z AUTO 28006G16KT 7SM SCT014 SCT023 BKN037 24/22 A3008 RMK AO2 T02460223

More Conditions Fewer Conditions

Pressure 30.08 in
Visibility 7.0 miles
Clouds Scattered Clouds 1400 ft
Scattered Clouds 2300 ft
Mostly Cloudy 3700 ft
Heat Index 73 °F
Dew Point 68 °F
Humidity 84%
Rainfall 0.00 in
Snow Depth Not available.
UV 0.0 out of 12
Pollen 3.80 out of 12
Air Quality Not available.
Flu Activity Local Activity
METAR KPSN 301255Z AUTO 28006G16KT 7SM SCT014 SCT023 BKN037 24/22 A3008 RMK AO2 T02460223

More Conditions Fewer Conditions

Nowcast | as of 7:26 am CDT on June 30, 2015

Showers and thunderstorms will affect areas along the Interstate 35 and 45 corridors south of the Dallas-Fort Worth metroplex through mid morning. Activity is weakening while moving slowly south...but still may produce localized rainfall amounts up to half an inch through 10 am.

×

10-Day Weather Forecast

×

Almanac

Astronomy

Jun. 30, 2015 Rise Set
Actual Time
Civil Twilight
Nautical Twilight
Astronomical Twilight
Moon
Length of Visible Light
Length of Day
Tomorrow will be .
, % of the Moon is Illuminated

Today's Extremes

State Highs State Lows

Community

WunderPhotos

Upload Photos

1,833,990 photos uploaded!

WunderBlogs® & News

Nearby

Air Quality

  Air Quality AQ Index Pollutant
Not available.

Snow Depth

Station Depth Elevation

Earthquake Activity

City Distance Mag. Time & Date
Minimum magnitude displayed is 2.5.

Coastal Water Temperatures

Place Temperature

Stations

Nearby Weather Stations

Station Location Temp. Windchill Dew Point Humidity Wind Precip. Elev Updated Type
                   
Flood Warning
Statement as of 9:34 PM CDT on June 29, 2015

The Flood Warning continues for
the Trinity River near Long Lake.
* At 0918 PM Monday the stage was 38.55 feet.
* Flood stage is 35 feet.
* Minor flooding is occurring and minor flooding is forecast.
* Forecast... the river will continue rising to a crest near 40 feet
by Thursday evening then begin falling but remain above flood
stage.


Lat... Lon 3170 9593 3150 9580 3149 9562 3173 9580